sensor_id;sensor_type;location;lat;lon;timestamp;temperature;humidity
37086;DHT22;23001;45.952;12.676;2023-02-04T00:01:49;3.70;99.90
37086;DHT22;23001;45.952;12.676;2023-02-04T00:04:14;3.50;99.90
37086;DHT22;23001;45.952;12.676;2023-02-04T00:06:40;3.60;99.90
37086;DHT22;23001;45.952;12.676;2023-02-04T00:09:06;3.60;99.90
37086;DHT22;23001;45.952;12.676;2023-02-04T00:11:32;3.70;99.90
37086;DHT22;23001;45.952;12.676;2023-02-04T00:13:58;3.50;99.90
37086;DHT22;23001;45.952;12.676;2023-02-04T00:16:23;3.50;99.90
37086;DHT22;23001;45.952;12.676;2023-02-04T00:18:49;3.60;99.90
37086;DHT22;23001;45.952;12.676;2023-02-04T00:21:15;3.60;99.90
37086;DHT22;23001;45.952;12.676;2023-02-04T00:23:40;3.50;99.90
37086;DHT22;23001;45.952;12.676;2023-02-04T00:26:06;3.40;99.90
37086;DHT22;23001;45.952;12.676;2023-02-04T00:28:32;3.30;99.90
37086;DHT22;23001;45.952;12.676;2023-02-04T00:30:57;3.20;99.90
37086;DHT22;23001;45.952;12.676;2023-02-04T00:33:23;3.10;99.90
37086;DHT22;23001;45.952;12.676;2023-02-04T00:35:49;3.20;99.90
37086;DHT22;23001;45.952;12.676;2023-02-04T00:38:14;3.40;99.90
37086;DHT22;23001;45.952;12.676;2023-02-04T00:40:40;3.20;99.90
37086;DHT22;23001;45.952;12.676;2023-02-04T00:43:06;3.10;99.90
37086;DHT22;23001;45.952;12.676;2023-02-04T00:45:31;3.20;99.90
37086;DHT22;23001;45.952;12.676;2023-02-04T00:47:57;3.20;99.90
37086;DHT22;23001;45.952;12.676;2023-02-04T00:50:23;3.30;99.90
37086;DHT22;23001;45.952;12.676;2023-02-04T00:52:49;3.20;99.90
37086;DHT22;23001;45.952;12.676;2023-02-04T00:55:15;3.10;99.90
37086;DHT22;23001;45.952;12.676;2023-02-04T00:57:43;3.10;99.90
37086;DHT22;23001;45.952;12.676;2023-02-04T01:00:09;3.30;99.90
37086;DHT22;23001;45.952;12.676;2023-02-04T01:02:35;3.30;99.90
37086;DHT22;23001;45.952;12.676;2023-02-04T01:05:01;3.00;99.90
37086;DHT22;23001;45.952;12.676;2023-02-04T01:07:26;3.10;99.90
37086;DHT22;23001;45.952;12.676;2023-02-04T01:09:52;3.20;99.90
37086;DHT22;23001;45.952;12.676;2023-02-04T01:12:18;3.20;99.90
37086;DHT22;23001;45.952;12.676;2023-02-04T01:14:47;3.10;99.90
37086;DHT22;23001;45.952;12.676;2023-02-04T01:17:13;3.20;99.90
37086;DHT22;23001;45.952;12.676;2023-02-04T01:19:38;3.30;99.90
37086;DHT22;23001;45.952;12.676;2023-02-04T01:22:04;3.20;99.90
37086;DHT22;23001;45.952;12.676;2023-02-04T01:24:29;3.10;99.90
37086;DHT22;23001;45.952;12.676;2023-02-04T01:26:55;2.90;99.90
37086;DHT22;23001;45.952;12.676;2023-02-04T01:29:21;2.90;99.90
37086;DHT22;23001;45.952;12.676;2023-02-04T01:31:46;2.80;99.90
37086;DHT22;23001;45.952;12.676;2023-02-04T01:34:12;2.80;99.90
37086;DHT22;23001;45.952;12.676;2023-02-04T01:36:38;2.80;99.90
37086;DHT22;23001;45.952;12.676;2023-02-04T01:39:03;2.70;99.90
37086;DHT22;23001;45.952;12.676;2023-02-04T01:41:29;2.60;99.90
37086;DHT22;23001;45.952;12.676;2023-02-04T01:43:55;2.60;99.90
37086;DHT22;23001;45.952;12.676;2023-02-04T01:46:20;2.70;99.90
37086;DHT22;23001;45.952;12.676;2023-02-04T01:48:46;2.60;99.90
37086;DHT22;23001;45.952;12.676;2023-02-04T01:51:14;2.70;99.90
37086;DHT22;23001;45.952;12.676;2023-02-04T01:53:40;2.70;99.90
37086;DHT22;23001;45.952;12.676;2023-02-04T01:56:19;2.80;99.90
37086;DHT22;23001;45.952;12.676;2023-02-04T01:58:46;2.70;99.90
37086;DHT22;23001;45.952;12.676;2023-02-04T02:01:14;2.60;99.90
37086;DHT22;23001;45.952;12.676;2023-02-04T02:03:40;2.50;99.90
37086;DHT22;23001;45.952;12.676;2023-02-04T02:06:06;2.40;99.90
37086;DHT22;23001;45.952;12.676;2023-02-04T02:08:35;2.40;99.90
37086;DHT22;23001;45.952;12.676;2023-02-04T02:11:01;2.30;99.90
37086;DHT22;23001;45.952;12.676;2023-02-04T02:13:27;2.40;99.90
37086;DHT22;23001;45.952;12.676;2023-02-04T02:15:53;2.50;99.90
37086;DHT22;23001;45.952;12.676;2023-02-04T02:18:19;2.40;99.90
37086;DHT22;23001;45.952;12.676;2023-02-04T02:20:45;2.20;99.90
37086;DHT22;23001;45.952;12.676;2023-02-04T02:23:41;2.20;99.90
37086;DHT22;23001;45.952;12.676;2023-02-04T02:26:07;2.20;99.90
37086;DHT22;23001;45.952;12.676;2023-02-04T02:28:33;2.20;99.90
37086;DHT22;23001;45.952;12.676;2023-02-04T02:30:58;2.30;99.90
37086;DHT22;23001;45.952;12.676;2023-02-04T02:33:24;2.40;99.90
37086;DHT22;23001;45.952;12.676;2023-02-04T02:35:50;2.30;99.90
37086;DHT22;23001;45.952;12.676;2023-02-04T02:38:17;2.30;99.90
37086;DHT22;23001;45.952;12.676;2023-02-04T02:40:44;2.40;99.90
37086;DHT22;23001;45.952;12.676;2023-02-04T02:43:15;2.40;99.90
37086;DHT22;23001;45.952;12.676;2023-02-04T02:45:42;2.50;99.90
37086;DHT22;23001;45.952;12.676;2023-02-04T02:48:09;2.60;99.90
37086;DHT22;23001;45.952;12.676;2023-02-04T02:50:35;2.60;99.90
37086;DHT22;23001;45.952;12.676;2023-02-04T02:53:01;2.40;99.90
37086;DHT22;23001;45.952;12.676;2023-02-04T02:55:28;2.40;99.90
37086;DHT22;23001;45.952;12.676;2023-02-04T02:57:55;2.50;99.90
37086;DHT22;23001;45.952;12.676;2023-02-04T03:00:23;2.40;99.90
37086;DHT22;23001;45.952;12.676;2023-02-04T03:03:11;2.30;99.90
37086;DHT22;23001;45.952;12.676;2023-02-04T03:05:41;2.40;99.90
37086;DHT22;23001;45.952;12.676;2023-02-04T03:08:09;2.40;99.90
37086;DHT22;23001;45.952;12.676;2023-02-04T03:10:36;2.40;99.90
37086;DHT22;23001;45.952;12.676;2023-02-04T03:13:03;2.40;99.90
37086;DHT22;23001;45.952;12.676;2023-02-04T03:15:29;2.30;99.90
37086;DHT22;23001;45.952;12.676;2023-02-04T03:17:55;2.30;99.90
37086;DHT22;23001;45.952;12.676;2023-02-04T03:20:23;2.30;99.90
37086;DHT22;23001;45.952;12.676;2023-02-04T03:22:50;2.40;99.90
37086;DHT22;23001;45.952;12.676;2023-02-04T03:25:16;2.30;99.90
37086;DHT22;23001;45.952;12.676;2023-02-04T03:27:42;2.30;99.90
37086;DHT22;23001;45.952;12.676;2023-02-04T03:30:08;2.20;99.90
37086;DHT22;23001;45.952;12.676;2023-02-04T03:32:34;2.20;99.90
37086;DHT22;23001;45.952;12.676;2023-02-04T03:35:00;2.40;99.90
37086;DHT22;23001;45.952;12.676;2023-02-04T03:37:25;2.40;99.90
37086;DHT22;23001;45.952;12.676;2023-02-04T03:39:51;2.40;99.90
37086;DHT22;23001;45.952;12.676;2023-02-04T03:42:17;2.40;99.90
37086;DHT22;23001;45.952;12.676;2023-02-04T03:44:43;2.50;99.90
37086;DHT22;23001;45.952;12.676;2023-02-04T03:47:09;2.40;99.90
37086;DHT22;23001;45.952;12.676;2023-02-04T03:49:34;2.40;99.90
37086;DHT22;23001;45.952;12.676;2023-02-04T03:52:01;2.50;99.90
37086;DHT22;23001;45.952;12.676;2023-02-04T03:54:27;2.60;99.90
37086;DHT22;23001;45.952;12.676;2023-02-04T03:56:53;2.60;99.90
37086;DHT22;23001;45.952;12.676;2023-02-04T03:59:18;2.40;99.90
37086;DHT22;23001;45.952;12.676;2023-02-04T04:01:44;2.50;99.90
37086;DHT22;23001;45.952;12.676;2023-02-04T04:04:10;2.50;99.90
37086;DHT22;23001;45.952;12.676;2023-02-04T04:06:35;2.40;99.90
37086;DHT22;23001;45.952;12.676;2023-02-04T04:09:01;2.50;99.90
37086;DHT22;23001;45.952;12.676;2023-02-04T04:11:27;2.50;99.90
37086;DHT22;23001;45.952;12.676;2023-02-04T04:13:53;2.50;99.90
37086;DHT22;23001;45.952;12.676;2023-02-04T04:16:18;2.50;99.90
37086;DHT22;23001;45.952;12.676;2023-02-04T04:18:45;2.50;99.90
37086;DHT22;23001;45.952;12.676;2023-02-04T04:21:10;2.60;99.90
37086;DHT22;23001;45.952;12.676;2023-02-04T04:23:37;2.50;99.90
37086;DHT22;23001;45.952;12.676;2023-02-04T04:26:02;2.50;99.90
37086;DHT22;23001;45.952;12.676;2023-02-04T04:28:28;2.50;99.90
37086;DHT22;23001;45.952;12.676;2023-02-04T04:30:54;2.60;99.90
37086;DHT22;23001;45.952;12.676;2023-02-04T04:33:19;2.70;99.90
37086;DHT22;23001;45.952;12.676;2023-02-04T04:35:45;2.50;99.90
37086;DHT22;23001;45.952;12.676;2023-02-04T04:38:11;2.60;99.90
37086;DHT22;23001;45.952;12.676;2023-02-04T04:40:36;2.60;99.90
37086;DHT22;23001;45.952;12.676;2023-02-04T04:43:02;2.60;99.90
37086;DHT22;23001;45.952;12.676;2023-02-04T04:45:28;2.60;99.90
37086;DHT22;23001;45.952;12.676;2023-02-04T04:47:54;2.60;99.90
37086;DHT22;23001;45.952;12.676;2023-02-04T04:50:20;2.60;99.90
37086;DHT22;23001;45.952;12.676;2023-02-04T04:52:45;2.60;99.90
37086;DHT22;23001;45.952;12.676;2023-02-04T04:55:11;2.60;99.90
37086;DHT22;23001;45.952;12.676;2023-02-04T04:57:37;2.60;99.90
37086;DHT22;23001;45.952;12.676;2023-02-04T05:00:04;2.60;99.90
37086;DHT22;23001;45.952;12.676;2023-02-04T05:02:30;2.70;99.90
37086;DHT22;23001;45.952;12.676;2023-02-04T05:04:56;2.70;99.90
37086;DHT22;23001;45.952;12.676;2023-02-04T05:07:21;2.60;99.90
37086;DHT22;23001;45.952;12.676;2023-02-04T05:09:47;2.60;99.90
37086;DHT22;23001;45.952;12.676;2023-02-04T05:12:13;2.60;99.90
37086;DHT22;23001;45.952;12.676;2023-02-04T05:14:38;2.70;99.90
37086;DHT22;23001;45.952;12.676;2023-02-04T05:17:04;2.60;99.90
37086;DHT22;23001;45.952;12.676;2023-02-04T05:19:29;2.60;99.90
37086;DHT22;23001;45.952;12.676;2023-02-04T05:21:55;2.70;99.90
37086;DHT22;23001;45.952;12.676;2023-02-04T05:24:22;2.70;99.90
37086;DHT22;23001;45.952;12.676;2023-02-04T05:26:47;2.60;99.90
37086;DHT22;23001;45.952;12.676;2023-02-04T05:29:13;2.50;99.90
37086;DHT22;23001;45.952;12.676;2023-02-04T05:31:39;2.60;99.90
37086;DHT22;23001;45.952;12.676;2023-02-04T05:34:04;2.60;99.90
37086;DHT22;23001;45.952;12.676;2023-02-04T05:36:30;2.60;99.90
37086;DHT22;23001;45.952;12.676;2023-02-04T05:38:56;2.60;99.90
37086;DHT22;23001;45.952;12.676;2023-02-04T05:41:21;2.70;99.90
37086;DHT22;23001;45.952;12.676;2023-02-04T05:43:47;2.50;99.90
37086;DHT22;23001;45.952;12.676;2023-02-04T05:46:13;2.40;99.90
37086;DHT22;23001;45.952;12.676;2023-02-04T05:48:38;2.50;99.90
37086;DHT22;23001;45.952;12.676;2023-02-04T05:51:04;2.50;99.90
37086;DHT22;23001;45.952;12.676;2023-02-04T05:53:30;2.50;99.90
37086;DHT22;23001;45.952;12.676;2023-02-04T05:55:56;2.40;99.90
37086;DHT22;23001;45.952;12.676;2023-02-04T05:58:22;2.40;99.90
37086;DHT22;23001;45.952;12.676;2023-02-04T06:00:47;2.50;99.90
37086;DHT22;23001;45.952;12.676;2023-02-04T06:03:13;2.40;99.90
37086;DHT22;23001;45.952;12.676;2023-02-04T06:05:39;2.40;99.90
37086;DHT22;23001;45.952;12.676;2023-02-04T06:08:05;2.50;99.90
37086;DHT22;23001;45.952;12.676;2023-02-04T06:10:30;2.40;99.90
37086;DHT22;23001;45.952;12.676;2023-02-04T06:12:56;2.40;99.90
37086;DHT22;23001;45.952;12.676;2023-02-04T06:15:22;2.40;99.90
37086;DHT22;23001;45.952;12.676;2023-02-04T06:17:48;2.60;99.90
37086;DHT22;23001;45.952;12.676;2023-02-04T06:20:14;2.70;99.90
37086;DHT22;23001;45.952;12.676;2023-02-04T06:22:39;2.60;99.90
37086;DHT22;23001;45.952;12.676;2023-02-04T06:25:05;2.50;99.90
37086;DHT22;23001;45.952;12.676;2023-02-04T06:27:31;2.60;99.90
37086;DHT22;23001;45.952;12.676;2023-02-04T06:29:57;2.70;99.90
37086;DHT22;23001;45.952;12.676;2023-02-04T06:32:23;2.60;99.90
37086;DHT22;23001;45.952;12.676;2023-02-04T06:34:48;2.50;99.90
37086;DHT22;23001;45.952;12.676;2023-02-04T06:37:14;2.60;99.90
37086;DHT22;23001;45.952;12.676;2023-02-04T06:39:42;2.70;99.90
37086;DHT22;23001;45.952;12.676;2023-02-04T06:42:07;2.60;99.90
37086;DHT22;23001;45.952;12.676;2023-02-04T06:44:33;2.50;99.90
37086;DHT22;23001;45.952;12.676;2023-02-04T06:46:59;2.50;99.90
37086;DHT22;23001;45.952;12.676;2023-02-04T06:49:24;2.50;99.90
37086;DHT22;23001;45.952;12.676;2023-02-04T06:51:51;2.50;99.90
37086;DHT22;23001;45.952;12.676;2023-02-04T06:54:17;2.40;99.90
37086;DHT22;23001;45.952;12.676;2023-02-04T06:56:42;2.60;99.90
37086;DHT22;23001;45.952;12.676;2023-02-04T06:59:09;2.60;99.90
37086;DHT22;23001;45.952;12.676;2023-02-04T07:01:34;2.50;99.90
37086;DHT22;23001;45.952;12.676;2023-02-04T07:04:00;2.50;99.90
37086;DHT22;23001;45.952;12.676;2023-02-04T07:06:26;2.60;99.90
37086;DHT22;23001;45.952;12.676;2023-02-04T07:08:52;2.60;99.90
37086;DHT22;23001;45.952;12.676;2023-02-04T07:11:17;2.70;99.90
37086;DHT22;23001;45.952;12.676;2023-02-04T07:13:43;2.80;99.90
37086;DHT22;23001;45.952;12.676;2023-02-04T07:16:09;2.80;99.90
37086;DHT22;23001;45.952;12.676;2023-02-04T07:18:34;2.90;99.90
37086;DHT22;23001;45.952;12.676;2023-02-04T07:21:00;2.80;99.90
37086;DHT22;23001;45.952;12.676;2023-02-04T07:23:26;2.90;99.90
37086;DHT22;23001;45.952;12.676;2023-02-04T07:25:53;2.90;99.90
37086;DHT22;23001;45.952;12.676;2023-02-04T07:28:20;3.00;99.90
37086;DHT22;23001;45.952;12.676;2023-02-04T07:30:46;2.90;99.90
37086;DHT22;23001;45.952;12.676;2023-02-04T07:33:12;3.00;99.90
37086;DHT22;23001;45.952;12.676;2023-02-04T07:35:38;3.20;99.90
37086;DHT22;23001;45.952;12.676;2023-02-04T07:38:04;3.20;99.90
37086;DHT22;23001;45.952;12.676;2023-02-04T07:40:30;3.30;99.90
37086;DHT22;23001;45.952;12.676;2023-02-04T07:42:56;3.30;99.90
37086;DHT22;23001;45.952;12.676;2023-02-04T07:45:21;3.40;99.90
37086;DHT22;23001;45.952;12.676;2023-02-04T07:47:47;3.30;99.90
37086;DHT22;23001;45.952;12.676;2023-02-04T07:50:13;3.30;99.90
37086;DHT22;23001;45.952;12.676;2023-02-04T07:52:39;3.50;99.90
37086;DHT22;23001;45.952;12.676;2023-02-04T07:55:05;3.50;99.90
37086;DHT22;23001;45.952;12.676;2023-02-04T07:57:31;3.50;99.90
37086;DHT22;23001;45.952;12.676;2023-02-04T07:59:57;3.50;99.90
37086;DHT22;23001;45.952;12.676;2023-02-04T08:02:23;3.40;99.90
37086;DHT22;23001;45.952;12.676;2023-02-04T08:04:49;3.40;99.90
37086;DHT22;23001;45.952;12.676;2023-02-04T08:07:15;3.40;99.90
37086;DHT22;23001;45.952;12.676;2023-02-04T08:09:41;3.50;99.90
37086;DHT22;23001;45.952;12.676;2023-02-04T08:12:06;3.50;99.90
37086;DHT22;23001;45.952;12.676;2023-02-04T08:14:32;3.60;99.90
37086;DHT22;23001;45.952;12.676;2023-02-04T08:16:58;3.70;99.90
37086;DHT22;23001;45.952;12.676;2023-02-04T08:19:23;3.80;99.90
37086;DHT22;23001;45.952;12.676;2023-02-04T08:21:49;3.80;99.90
37086;DHT22;23001;45.952;12.676;2023-02-04T08:24:16;3.80;99.90
37086;DHT22;23001;45.952;12.676;2023-02-04T08:26:42;3.90;99.90
37086;DHT22;23001;45.952;12.676;2023-02-04T08:29:08;4.00;99.90
37086;DHT22;23001;45.952;12.676;2023-02-04T08:31:35;4.10;99.90
37086;DHT22;23001;45.952;12.676;2023-02-04T08:34:04;4.20;99.90
37086;DHT22;23001;45.952;12.676;2023-02-04T08:36:30;4.30;99.90
37086;DHT22;23001;45.952;12.676;2023-02-04T08:38:56;4.40;99.90
37086;DHT22;23001;45.952;12.676;2023-02-04T08:41:22;4.50;99.90
37086;DHT22;23001;45.952;12.676;2023-02-04T08:43:47;4.50;99.90
37086;DHT22;23001;45.952;12.676;2023-02-04T08:46:13;4.70;99.90
37086;DHT22;23001;45.952;12.676;2023-02-04T08:48:39;4.70;99.90
37086;DHT22;23001;45.952;12.676;2023-02-04T08:51:04;4.90;99.90
37086;DHT22;23001;45.952;12.676;2023-02-04T08:53:30;4.90;99.90
37086;DHT22;23001;45.952;12.676;2023-02-04T08:55:56;5.00;99.90
37086;DHT22;23001;45.952;12.676;2023-02-04T08:58:22;5.20;99.90
37086;DHT22;23001;45.952;12.676;2023-02-04T09:00:47;5.20;99.90
37086;DHT22;23001;45.952;12.676;2023-02-04T09:03:13;5.20;99.90
37086;DHT22;23001;45.952;12.676;2023-02-04T09:05:39;5.20;99.90
37086;DHT22;23001;45.952;12.676;2023-02-04T09:08:04;5.30;99.90
37086;DHT22;23001;45.952;12.676;2023-02-04T09:10:30;5.40;99.90
37086;DHT22;23001;45.952;12.676;2023-02-04T09:12:56;5.40;99.90
37086;DHT22;23001;45.952;12.676;2023-02-04T09:15:22;5.60;99.90
37086;DHT22;23001;45.952;12.676;2023-02-04T09:17:52;5.60;99.90
37086;DHT22;23001;45.952;12.676;2023-02-04T09:20:20;5.70;99.90
37086;DHT22;23001;45.952;12.676;2023-02-04T09:22:46;5.80;99.90
37086;DHT22;23001;45.952;12.676;2023-02-04T09:25:12;5.80;99.90
37086;DHT22;23001;45.952;12.676;2023-02-04T09:27:38;5.90;99.90
37086;DHT22;23001;45.952;12.676;2023-02-04T09:30:04;5.90;99.90
37086;DHT22;23001;45.952;12.676;2023-02-04T09:32:30;6.00;99.90
37086;DHT22;23001;45.952;12.676;2023-02-04T09:34:56;6.10;99.90
37086;DHT22;23001;45.952;12.676;2023-02-04T09:37:21;6.20;99.90
37086;DHT22;23001;45.952;12.676;2023-02-04T09:39:49;6.30;99.90
37086;DHT22;23001;45.952;12.676;2023-02-04T09:42:15;6.30;99.90
37086;DHT22;23001;45.952;12.676;2023-02-04T09:44:41;6.40;99.90
37086;DHT22;23001;45.952;12.676;2023-02-04T09:47:11;6.50;99.90
37086;DHT22;23001;45.952;12.676;2023-02-04T09:49:37;6.50;99.90
37086;DHT22;23001;45.952;12.676;2023-02-04T09:52:03;6.60;99.90
37086;DHT22;23001;45.952;12.676;2023-02-04T09:54:32;6.70;99.90
37086;DHT22;23001;45.952;12.676;2023-02-04T09:56:58;6.80;99.90
37086;DHT22;23001;45.952;12.676;2023-02-04T09:59:26;6.70;99.90
37086;DHT22;23001;45.952;12.676;2023-02-04T10:02:20;6.80;99.90
37086;DHT22;23001;45.952;12.676;2023-02-04T10:04:47;6.80;99.90
37086;DHT22;23001;45.952;12.676;2023-02-04T10:07:22;6.80;99.90
37086;DHT22;23001;45.952;12.676;2023-02-04T10:09:51;6.90;99.90
37086;DHT22;23001;45.952;12.676;2023-02-04T10:12:17;7.00;99.90
37086;DHT22;23001;45.952;12.676;2023-02-04T10:14:43;7.10;99.90
37086;DHT22;23001;45.952;12.676;2023-02-04T10:17:10;7.10;99.90
37086;DHT22;23001;45.952;12.676;2023-02-04T10:19:36;7.20;99.90
37086;DHT22;23001;45.952;12.676;2023-02-04T10:22:06;7.30;99.90
37086;DHT22;23001;45.952;12.676;2023-02-04T10:24:35;7.40;99.90
37086;DHT22;23001;45.952;12.676;2023-02-04T10:27:10;7.40;99.90
37086;DHT22;23001;45.952;12.676;2023-02-04T10:29:36;7.50;99.90
37086;DHT22;23001;45.952;12.676;2023-02-04T10:32:02;7.50;99.90
37086;DHT22;23001;45.952;12.676;2023-02-04T10:34:39;7.60;99.90
37086;DHT22;23001;45.952;12.676;2023-02-04T10:37:19;7.60;99.90
37086;DHT22;23001;45.952;12.676;2023-02-04T10:39:45;7.60;99.90
37086;DHT22;23001;45.952;12.676;2023-02-04T10:42:22;7.60;99.90
37086;DHT22;23001;45.952;12.676;2023-02-04T10:44:48;7.70;99.90
37086;DHT22;23001;45.952;12.676;2023-02-04T10:47:22;7.70;99.90
37086;DHT22;23001;45.952;12.676;2023-02-04T10:52:40;7.80;99.90
37086;DHT22;23001;45.952;12.676;2023-02-04T10:55:12;7.90;99.90
37086;DHT22;23001;45.952;12.676;2023-02-04T10:57:39;8.00;99.90
37086;DHT22;23001;45.952;12.676;2023-02-04T11:00:20;8.00;99.90
37086;DHT22;23001;45.952;12.676;2023-02-04T11:02:58;8.10;99.90
37086;DHT22;23001;45.952;12.676;2023-02-04T11:05:31;8.20;99.90
37086;DHT22;23001;45.952;12.676;2023-02-04T11:07:58;8.20;99.90
37086;DHT22;23001;45.952;12.676;2023-02-04T11:10:28;8.30;99.90
37086;DHT22;23001;45.952;12.676;2023-02-04T11:18:09;8.50;99.90
37086;DHT22;23001;45.952;12.676;2023-02-04T11:20:36;8.60;99.90
37086;DHT22;23001;45.952;12.676;2023-02-04T11:23:29;8.60;99.90
37086;DHT22;23001;45.952;12.676;2023-02-04T11:28:38;8.90;99.90
37086;DHT22;23001;45.952;12.676;2023-02-04T11:33:48;8.90;99.90
37086;DHT22;23001;45.952;12.676;2023-02-04T11:36:15;9.00;99.90
37086;DHT22;23001;45.952;12.676;2023-02-04T11:38:46;9.00;99.90
37086;DHT22;23001;45.952;12.676;2023-02-04T11:41:24;9.00;99.90
37086;DHT22;23001;45.952;12.676;2023-02-04T11:43:52;9.10;99.90
37086;DHT22;23001;45.952;12.676;2023-02-04T11:46:19;9.10;99.90
37086;DHT22;23001;45.952;12.676;2023-02-04T11:48:45;9.00;99.90
37086;DHT22;23001;45.952;12.676;2023-02-04T11:51:14;9.00;99.90
37086;DHT22;23001;45.952;12.676;2023-02-04T11:53:40;9.00;99.90
37086;DHT22;23001;45.952;12.676;2023-02-04T11:56:13;9.00;99.90
37086;DHT22;23001;45.952;12.676;2023-02-04T11:58:40;9.00;99.90
37086;DHT22;23001;45.952;12.676;2023-02-04T12:01:18;9.10;99.90
37086;DHT22;23001;45.952;12.676;2023-02-04T12:03:56;9.10;99.90
37086;DHT22;23001;45.952;12.676;2023-02-04T12:06:28;9.20;99.90
37086;DHT22;23001;45.952;12.676;2023-02-04T12:11:51;9.10;99.90
37086;DHT22;23001;45.952;12.676;2023-02-04T12:14:18;9.10;99.90
37086;DHT22;23001;45.952;12.676;2023-02-04T12:16:45;9.20;99.90
37086;DHT22;23001;45.952;12.676;2023-02-04T12:19:11;9.20;99.90
37086;DHT22;23001;45.952;12.676;2023-02-04T12:21:38;9.30;99.90
37086;DHT22;23001;45.952;12.676;2023-02-04T12:24:03;9.40;99.90
37086;DHT22;23001;45.952;12.676;2023-02-04T12:26:29;9.30;99.90
37086;DHT22;23001;45.952;12.676;2023-02-04T12:28:55;9.40;99.90
37086;DHT22;23001;45.952;12.676;2023-02-04T12:31:21;9.30;99.90
37086;DHT22;23001;45.952;12.676;2023-02-04T12:33:47;9.30;99.90
37086;DHT22;23001;45.952;12.676;2023-02-04T12:36:13;9.50;99.90
37086;DHT22;23001;45.952;12.676;2023-02-04T12:38:38;9.60;99.90
37086;DHT22;23001;45.952;12.676;2023-02-04T12:41:05;9.60;99.90
37086;DHT22;23001;45.952;12.676;2023-02-04T12:43:34;9.70;99.90
37086;DHT22;23001;45.952;12.676;2023-02-04T12:46:00;9.70;99.90
37086;DHT22;23001;45.952;12.676;2023-02-04T12:48:26;9.70;99.90
37086;DHT22;23001;45.952;12.676;2023-02-04T12:50:51;9.80;99.90
37086;DHT22;23001;45.952;12.676;2023-02-04T12:53:17;9.90;99.90
37086;DHT22;23001;45.952;12.676;2023-02-04T12:55:43;9.90;99.90
37086;DHT22;23001;45.952;12.676;2023-02-04T12:58:08;9.90;99.90
37086;DHT22;23001;45.952;12.676;2023-02-04T13:00:34;10.10;99.90
37086;DHT22;23001;45.952;12.676;2023-02-04T13:03:00;10.20;99.90
37086;DHT22;23001;45.952;12.676;2023-02-04T13:05:26;10.20;99.90
37086;DHT22;23001;45.952;12.676;2023-02-04T13:07:51;10.20;99.90
37086;DHT22;23001;45.952;12.676;2023-02-04T13:10:18;10.20;99.90
37086;DHT22;23001;45.952;12.676;2023-02-04T13:12:44;10.30;99.90
37086;DHT22;23001;45.952;12.676;2023-02-04T13:15:10;10.30;99.90
37086;DHT22;23001;45.952;12.676;2023-02-04T13:17:36;10.30;99.90
37086;DHT22;23001;45.952;12.676;2023-02-04T13:20:03;10.40;99.90
37086;DHT22;23001;45.952;12.676;2023-02-04T13:22:29;10.50;99.90
37086;DHT22;23001;45.952;12.676;2023-02-04T13:24:55;10.50;99.90
37086;DHT22;23001;45.952;12.676;2023-02-04T13:27:21;10.70;99.90
37086;DHT22;23001;45.952;12.676;2023-02-04T13:29:46;10.80;99.90
37086;DHT22;23001;45.952;12.676;2023-02-04T13:32:12;10.80;99.90
37086;DHT22;23001;45.952;12.676;2023-02-04T13:34:38;10.80;99.90
37086;DHT22;23001;45.952;12.676;2023-02-04T13:37:04;10.80;99.90
37086;DHT22;23001;45.952;12.676;2023-02-04T13:39:29;10.80;99.90
37086;DHT22;23001;45.952;12.676;2023-02-04T13:41:55;10.80;99.90
37086;DHT22;23001;45.952;12.676;2023-02-04T13:44:21;10.90;99.90
37086;DHT22;23001;45.952;12.676;2023-02-04T13:46:46;10.80;99.90
37086;DHT22;23001;45.952;12.676;2023-02-04T13:49:12;10.90;99.90
37086;DHT22;23001;45.952;12.676;2023-02-04T13:51:37;10.90;99.90
37086;DHT22;23001;45.952;12.676;2023-02-04T13:54:03;11.00;99.90
37086;DHT22;23001;45.952;12.676;2023-02-04T13:56:29;11.00;99.90
37086;DHT22;23001;45.952;12.676;2023-02-04T13:58:57;11.00;99.90
37086;DHT22;23001;45.952;12.676;2023-02-04T14:01:23;11.00;99.90
37086;DHT22;23001;45.952;12.676;2023-02-04T14:03:48;11.00;99.90
37086;DHT22;23001;45.952;12.676;2023-02-04T14:06:14;11.10;99.90
37086;DHT22;23001;45.952;12.676;2023-02-04T14:08:40;11.00;99.90
37086;DHT22;23001;45.952;12.676;2023-02-04T14:11:05;11.00;99.90
37086;DHT22;23001;45.952;12.676;2023-02-04T14:13:32;11.00;99.90
37086;DHT22;23001;45.952;12.676;2023-02-04T14:15:57;11.10;99.90
37086;DHT22;23001;45.952;12.676;2023-02-04T14:18:23;11.20;99.90
37086;DHT22;23001;45.952;12.676;2023-02-04T14:20:49;11.20;99.90
37086;DHT22;23001;45.952;12.676;2023-02-04T14:23:14;11.10;99.90
37086;DHT22;23001;45.952;12.676;2023-02-04T14:25:40;11.20;99.90
37086;DHT22;23001;45.952;12.676;2023-02-04T14:28:06;11.20;99.90
37086;DHT22;23001;45.952;12.676;2023-02-04T14:30:31;11.10;99.90
37086;DHT22;23001;45.952;12.676;2023-02-04T14:32:58;11.00;99.90
37086;DHT22;23001;45.952;12.676;2023-02-04T14:35:24;11.00;99.90
37086;DHT22;23001;45.952;12.676;2023-02-04T14:37:50;11.00;99.90
37086;DHT22;23001;45.952;12.676;2023-02-04T14:40:17;11.00;99.90
37086;DHT22;23001;45.952;12.676;2023-02-04T14:42:43;11.10;99.90
37086;DHT22;23001;45.952;12.676;2023-02-04T14:45:10;11.00;99.90
37086;DHT22;23001;45.952;12.676;2023-02-04T14:47:37;11.00;99.90
37086;DHT22;23001;45.952;12.676;2023-02-04T14:50:05;11.00;99.90
37086;DHT22;23001;45.952;12.676;2023-02-04T14:52:31;10.90;99.90
37086;DHT22;23001;45.952;12.676;2023-02-04T14:54:56;10.80;99.90
37086;DHT22;23001;45.952;12.676;2023-02-04T14:57:22;10.80;99.90
37086;DHT22;23001;45.952;12.676;2023-02-04T14:59:47;10.80;99.90
37086;DHT22;23001;45.952;12.676;2023-02-04T15:02:13;10.80;99.90
37086;DHT22;23001;45.952;12.676;2023-02-04T15:04:42;10.70;99.90
37086;DHT22;23001;45.952;12.676;2023-02-04T15:07:08;10.80;99.90
37086;DHT22;23001;45.952;12.676;2023-02-04T15:09:34;10.80;99.90
37086;DHT22;23001;45.952;12.676;2023-02-04T15:12:00;10.80;99.90
37086;DHT22;23001;45.952;12.676;2023-02-04T15:14:25;10.80;99.90
37086;DHT22;23001;45.952;12.676;2023-02-04T15:16:51;10.60;99.90
37086;DHT22;23001;45.952;12.676;2023-02-04T15:19:18;10.50;99.90
37086;DHT22;23001;45.952;12.676;2023-02-04T15:21:44;10.60;99.90
37086;DHT22;23001;45.952;12.676;2023-02-04T15:24:11;10.60;99.90
37086;DHT22;23001;45.952;12.676;2023-02-04T15:26:39;10.60;99.90
37086;DHT22;23001;45.952;12.676;2023-02-04T15:29:06;10.60;99.90
37086;DHT22;23001;45.952;12.676;2023-02-04T15:31:31;10.50;99.90
37086;DHT22;23001;45.952;12.676;2023-02-04T15:33:57;10.40;99.90
37086;DHT22;23001;45.952;12.676;2023-02-04T15:36:23;10.30;99.90
37086;DHT22;23001;45.952;12.676;2023-02-04T15:38:49;10.10;99.90
37086;DHT22;23001;45.952;12.676;2023-02-04T15:41:22;10.00;99.90